createdAt,value
2023-03-19T00:00:43.727Z,9.70
2023-03-19T00:03:12.257Z,10.33
2023-03-19T00:05:40.668Z,9.50
2023-03-19T00:08:09.493Z,10.43
2023-03-19T00:10:40.677Z,11.57
2023-03-19T00:13:10.233Z,11.37
2023-03-19T00:15:39.968Z,11.53
2023-03-19T00:18:08.536Z,13.23
2023-03-19T00:20:37.069Z,14.23
2023-03-19T00:23:06.400Z,14.57
2023-03-19T00:25:35.170Z,16.67
2023-03-19T00:28:03.864Z,18.20
2023-03-19T00:30:32.337Z,17.83
2023-03-19T00:33:02.489Z,18.03
2023-03-19T00:35:31.167Z,17.10
2023-03-19T00:38:00.036Z,18.93
2023-03-19T00:40:28.533Z,20.80
2023-03-19T00:42:56.935Z,23.43
2023-03-19T00:45:25.365Z,25.77
2023-03-19T00:47:54.030Z,25.50
2023-03-19T00:50:25.026Z,23.40
2023-03-19T00:52:53.574Z,21.90
2023-03-19T00:55:22.104Z,22.03
2023-03-19T00:57:50.863Z,19.83
2023-03-19T01:00:19.598Z,20.80
2023-03-19T01:02:48.064Z,23.33
2023-03-19T01:05:16.531Z,25.70
2023-03-19T01:07:46.350Z,24.50
2023-03-19T01:10:14.853Z,25.10
2023-03-19T01:12:43.072Z,26.90
2023-03-19T01:15:11.991Z,25.67
2023-03-19T01:17:40.486Z,26.43
2023-03-19T01:20:13.225Z,29.10
2023-03-19T01:22:42.723Z,26.87
2023-03-19T01:25:14.277Z,26.50
2023-03-19T01:27:43.131Z,26.53
2023-03-19T01:30:12.338Z,23.10
2023-03-19T01:32:41.102Z,22.87
2023-03-19T01:35:10.158Z,20.33
2023-03-19T01:37:38.592Z,20.23
2023-03-19T01:40:09.338Z,21.10
2023-03-19T01:42:53.447Z,20.47
2023-03-19T01:45:37.102Z,20.83
2023-03-19T01:48:06.913Z,22.13
2023-03-19T01:50:42.032Z,21.77
2023-03-19T01:53:12.753Z,20.33
2023-03-19T01:55:41.930Z,21.73
2023-03-19T01:58:11.923Z,23.17
2023-03-19T02:00:40.538Z,20.97
2023-03-19T02:03:09.716Z,21.93
2023-03-19T02:05:39.191Z,22.60
2023-03-19T02:08:12.652Z,23.77
2023-03-19T02:10:42.207Z,22.53
2023-03-19T02:13:12.363Z,22.07
2023-03-19T02:15:41.237Z,23.53
2023-03-19T02:18:10.139Z,23.20
2023-03-19T02:24:04.622Z,21.73
2023-03-19T02:26:34.477Z,20.73
2023-03-19T02:29:04.220Z,21.83
2023-03-19T02:31:33.003Z,20.17
2023-03-19T02:34:04.257Z,19.60
2023-03-19T02:36:37.242Z,21.97
2023-03-19T02:39:08.671Z,22.03
2023-03-19T02:41:39.878Z,22.23
2023-03-19T02:44:09.245Z,19.83
2023-03-19T02:46:37.712Z,21.50
2023-03-19T02:49:06.646Z,24.07
2023-03-19T02:51:35.112Z,23.00
2023-03-19T02:54:03.531Z,23.03
2023-03-19T02:56:32.074Z,23.67
2023-03-19T02:59:01.860Z,23.37
2023-03-19T03:01:30.569Z,21.60
2023-03-19T03:03:59.138Z,21.33
2023-03-19T03:06:27.752Z,21.07
2023-03-19T03:08:56.589Z,22.83
2023-03-19T03:11:25.520Z,22.37
2023-03-19T03:13:54.005Z,22.17
2023-03-19T03:16:23.625Z,21.17
2023-03-19T03:18:52.067Z,21.63
2023-03-19T03:21:21.558Z,21.70
2023-03-19T03:23:50.158Z,23.00
2023-03-19T03:26:18.661Z,23.70
2023-03-19T03:28:47.613Z,25.73
2023-03-19T03:31:16.937Z,23.30
2023-03-19T03:33:47.007Z,25.93
2023-03-19T03:36:15.410Z,24.60
2023-03-19T03:38:44.562Z,24.83
2023-03-19T03:41:13.345Z,24.87
2023-03-19T03:43:42.137Z,23.53
2023-03-19T03:46:10.651Z,22.93
2023-03-19T03:48:39.173Z,23.43
2023-03-19T03:51:09.011Z,22.97
2023-03-19T03:53:37.530Z,22.47
2023-03-19T03:56:06.393Z,21.93
2023-03-19T03:58:34.993Z,21.10
2023-03-19T04:01:03.436Z,19.10
2023-03-19T04:03:31.858Z,16.53
2023-03-19T04:06:00.454Z,18.40
2023-03-19T04:08:30.494Z,18.73
2023-03-19T04:10:59.412Z,18.50
2023-03-19T04:13:28.693Z,17.17
2023-03-19T04:15:57.660Z,17.27
2023-03-19T04:18:26.339Z,18.67
2023-03-19T04:20:54.712Z,18.97
2023-03-19T04:23:23.138Z,17.27
2023-03-19T04:25:52.761Z,19.83
2023-03-19T04:28:21.559Z,20.43
2023-03-19T04:30:50.005Z,19.97
2023-03-19T04:33:18.555Z,20.27
2023-03-19T04:35:47.125Z,20.23
2023-03-19T04:38:15.418Z,21.73
2023-03-19T04:40:43.817Z,21.50
2023-03-19T04:43:13.598Z,22.23
2023-03-19T04:45:42.231Z,21.97
2023-03-19T04:48:11.132Z,22.07
2023-03-19T04:50:40.333Z,23.90
2023-03-19T04:53:09.123Z,24.93
2023-03-19T04:55:37.692Z,27.17
2023-03-19T04:58:06.191Z,24.97
2023-03-19T05:00:35.862Z,26.47
2023-03-19T05:03:04.400Z,26.67
2023-03-19T05:05:32.892Z,26.57
2023-03-19T05:08:01.322Z,27.17
2023-03-19T05:10:29.894Z,28.30
2023-03-19T05:12:58.257Z,27.97
2023-03-19T05:15:26.702Z,29.73
2023-03-19T05:17:56.387Z,29.73
2023-03-19T05:20:25.261Z,29.30
2023-03-19T05:22:54.210Z,26.80
2023-03-19T05:25:22.847Z,28.97
2023-03-19T05:27:51.907Z,29.07
2023-03-19T05:30:20.390Z,31.90
2023-03-19T05:32:48.907Z,29.37
2023-03-19T05:35:18.761Z,28.67
2023-03-19T05:37:47.207Z,30.17
2023-03-19T05:40:16.633Z,30.17
2023-03-19T05:42:45.273Z,28.97
2023-03-19T05:45:13.800Z,28.97
2023-03-19T05:47:42.272Z,29.93
2023-03-19T05:50:11.707Z,28.83
2023-03-19T05:52:41.504Z,29.83
2023-03-19T05:55:10.716Z,28.33
2023-03-19T05:57:39.167Z,29.23
2023-03-19T06:00:09.340Z,28.67
2023-03-19T06:02:38.041Z,30.80
2023-03-19T06:05:07.443Z,29.60
2023-03-19T06:07:36.354Z,31.43
2023-03-19T06:10:06.842Z,31.63
2023-03-19T06:12:35.291Z,31.93
2023-03-19T06:15:03.731Z,30.13
2023-03-19T06:17:32.481Z,31.80
2023-03-19T06:20:01.197Z,31.27
2023-03-19T06:22:29.610Z,32.43
2023-03-19T06:24:58.044Z,32.70
2023-03-19T06:27:28.212Z,31.03
2023-03-19T06:29:56.648Z,32.90
2023-03-19T06:32:24.934Z,31.67
2023-03-19T06:34:53.373Z,32.00
2023-03-19T06:37:21.971Z,28.47
2023-03-19T06:39:51.100Z,32.23
2023-03-19T06:42:19.587Z,32.23
2023-03-19T06:44:51.199Z,31.83
2023-03-19T06:47:21.176Z,32.40
2023-03-19T06:49:49.451Z,32.83
2023-03-19T06:52:17.870Z,32.47
2023-03-19T06:54:46.586Z,32.57
2023-03-19T06:57:15.083Z,31.97
2023-03-19T06:59:43.542Z,33.33
2023-03-19T07:02:13.858Z,32.07
2023-03-19T07:04:42.368Z,33.87
2023-03-19T07:07:10.869Z,27.87
2023-03-19T07:09:39.376Z,15.43
2023-03-19T07:12:08.334Z,13.27
2023-03-19T07:14:36.720Z,12.40
2023-03-19T07:17:05.145Z,8.13
2023-03-19T07:19:34.939Z,8.50
2023-03-19T07:22:04.069Z,10.10
2023-03-19T07:24:32.462Z,8.60
2023-03-19T07:27:02.389Z,9.17
2023-03-19T07:29:30.768Z,8.13
2023-03-19T07:31:59.328Z,7.40
2023-03-19T07:34:27.701Z,6.27
2023-03-19T07:36:57.523Z,6.83
2023-03-19T07:39:25.817Z,6.83
2023-03-19T07:41:54.209Z,7.00
2023-03-19T07:44:22.678Z,7.40
2023-03-19T07:46:51.190Z,6.13
2023-03-19T07:49:19.647Z,4.97
2023-03-19T07:51:48.136Z,3.97
2023-03-19T07:54:17.852Z,5.20
2023-03-19T07:56:46.824Z,4.30
2023-03-19T07:59:15.341Z,4.33
2023-03-19T08:01:43.902Z,4.70
2023-03-19T08:04:12.670Z,4.40
2023-03-19T08:06:41.547Z,3.80
2023-03-19T08:09:10.453Z,3.23
2023-03-19T08:11:40.109Z,3.00
2023-03-19T08:14:08.570Z,2.70
2023-03-19T08:16:37.248Z,2.37
2023-03-19T08:19:05.886Z,2.10
2023-03-19T08:21:34.913Z,2.30
2023-03-19T08:24:05.034Z,2.37
2023-03-19T08:26:34.020Z,2.07
2023-03-19T08:29:04.201Z,1.90
2023-03-19T08:31:32.613Z,1.97
2023-03-19T08:34:03.571Z,2.13
2023-03-19T08:36:32.270Z,2.57
2023-03-19T08:39:01.238Z,2.23
2023-03-19T08:41:29.798Z,1.90
2023-03-19T08:43:58.262Z,1.30
2023-03-19T08:46:29.346Z,1.37
2023-03-19T08:48:58.183Z,1.67
2023-03-19T08:51:28.340Z,2.07
2023-03-19T08:53:57.127Z,2.20
2023-03-19T08:56:25.643Z,2.50
2023-03-19T08:58:54.337Z,1.70
2023-03-19T09:01:22.751Z,1.50
2023-03-19T09:03:52.652Z,1.90
2023-03-19T09:06:21.319Z,1.83
2023-03-19T09:08:49.867Z,1.63
2023-03-19T09:11:18.480Z,1.57
2023-03-19T09:13:47.079Z,1.67
2023-03-19T09:16:15.969Z,1.83
2023-03-19T09:18:44.398Z,1.53
2023-03-19T09:21:14.108Z,2.20
2023-03-19T09:23:42.633Z,2.13
2023-03-19T09:26:11.394Z,2.20
2023-03-19T09:28:40.457Z,2.37
2023-03-19T09:31:11.582Z,2.50
2023-03-19T09:33:40.663Z,1.93
2023-03-19T09:36:09.876Z,2.00
2023-03-19T09:38:39.904Z,2.30
2023-03-19T09:41:11.746Z,2.97
2023-03-19T09:43:52.084Z,2.33
2023-03-19T09:46:24.731Z,2.33
2023-03-19T09:48:57.517Z,2.53
2023-03-19T09:51:31.534Z,2.30
2023-03-19T09:54:04.106Z,2.87
2023-03-19T09:56:33.889Z,2.93
2023-03-19T09:59:03.401Z,2.57
2023-03-19T10:01:37.262Z,2.77
2023-03-19T10:04:20.106Z,2.70
2023-03-19T10:06:49.009Z,2.90
2023-03-19T10:09:35.707Z,3.20
2023-03-19T10:12:14.472Z,2.70
2023-03-19T10:15:04.682Z,2.83
2023-03-19T10:17:35.692Z,3.83
2023-03-19T10:20:09.532Z,3.93
2023-03-19T10:22:41.421Z,3.27
2023-03-19T10:25:17.126Z,3.47
2023-03-19T10:27:47.739Z,3.67
2023-03-19T10:30:18.232Z,3.80
2023-03-19T10:32:51.563Z,3.93
2023-03-19T10:35:22.983Z,3.93
2023-03-19T10:37:52.186Z,4.47
2023-03-19T10:40:27.239Z,4.50
2023-03-19T10:43:05.420Z,4.33
2023-03-19T10:45:35.846Z,5.00
2023-03-19T10:48:06.731Z,4.57
2023-03-19T10:50:39.400Z,5.50
2023-03-19T10:53:21.617Z,5.03
2023-03-19T10:55:55.860Z,4.80
2023-03-19T10:58:27.491Z,5.40
2023-03-19T11:00:59.131Z,5.60
2023-03-19T11:03:33.002Z,5.23
2023-03-19T11:06:18.386Z,5.80
2023-03-19T11:08:54.120Z,5.50
2023-03-19T11:11:33.742Z,5.80
2023-03-19T11:14:09.538Z,6.03
2023-03-19T11:16:57.534Z,6.13
2023-03-19T11:19:28.309Z,6.10
2023-03-19T11:22:10.478Z,5.83
2023-03-19T11:24:41.128Z,5.53
2023-03-19T11:27:12.628Z,6.30
2023-03-19T11:29:43.487Z,6.93
2023-03-19T11:32:27.772Z,6.90
2023-03-19T11:35:01.462Z,6.07
2023-03-19T11:37:38.600Z,6.50
2023-03-19T11:40:13.393Z,7.70
2023-03-19T11:42:57.306Z,6.50
2023-03-19T11:45:34.981Z,6.87
2023-03-19T11:48:28.822Z,6.60
2023-03-19T11:51:02.691Z,6.70
2023-03-19T11:53:35.982Z,6.17
2023-03-19T11:56:15.450Z,5.97
2023-03-19T11:59:19.135Z,5.30
2023-03-19T12:02:18.586Z,5.50
2023-03-19T12:05:16.165Z,5.50
2023-03-19T12:07:49.936Z,5.17
2023-03-19T12:10:41.527Z,4.90
2023-03-19T12:13:19.765Z,5.80
2023-03-19T12:15:57.240Z,6.60
2023-03-19T12:18:41.482Z,5.07
2023-03-19T12:21:16.602Z,6.00
2023-03-19T12:23:58.254Z,4.60
2023-03-19T12:26:32.569Z,4.87
2023-03-19T12:29:09.797Z,4.47
2023-03-19T12:31:51.827Z,4.20
2023-03-19T12:34:30.022Z,4.77
2023-03-19T12:37:13.600Z,4.80
2023-03-19T12:39:45.809Z,4.80
2023-03-19T12:42:18.923Z,3.97
2023-03-19T12:44:52.730Z,4.20
2023-03-19T12:47:27.021Z,4.00
2023-03-19T12:49:58.630Z,5.30
2023-03-19T12:52:32.888Z,3.70
2023-03-19T12:55:07.373Z,4.00
2023-03-19T12:57:40.569Z,4.20
2023-03-19T13:00:16.760Z,3.77
2023-03-19T13:02:54.186Z,3.90
2023-03-19T13:05:31.133Z,4.67
2023-03-19T13:08:04.454Z,4.13
2023-03-19T13:10:33.693Z,4.27
2023-03-19T13:13:08.160Z,4.70
2023-03-19T13:15:41.314Z,5.13
2023-03-19T13:18:30.650Z,4.97
2023-03-19T13:21:11.737Z,4.07
2023-03-19T13:23:43.052Z,4.40
2023-03-19T13:26:13.977Z,4.23
2023-03-19T13:29:00.160Z,4.10
2023-03-19T13:31:29.650Z,3.77
2023-03-19T13:34:05.212Z,4.40
2023-03-19T13:36:39.481Z,4.27
2023-03-19T13:39:16.203Z,4.70
2023-03-19T13:41:52.737Z,4.20
2023-03-19T13:44:42.440Z,4.83
2023-03-19T13:47:39.665Z,3.97
2023-03-19T13:50:28.394Z,4.60
2023-03-19T13:53:21.483Z,3.80
2023-03-19T13:55:58.730Z,5.07
2023-03-19T13:58:45.272Z,4.30
2023-03-19T14:01:37.992Z,3.83
2023-03-19T14:04:08.224Z,3.80
2023-03-19T14:06:42.571Z,4.20
2023-03-19T14:09:38.970Z,3.67
2023-03-19T14:12:26.374Z,3.93
2023-03-19T14:14:58.056Z,3.70
2023-03-19T14:17:31.707Z,4.23
2023-03-19T14:20:09.246Z,3.63
2023-03-19T14:22:41.426Z,3.77
2023-03-19T14:25:18.220Z,4.20
2023-03-19T14:27:49.053Z,4.13
2023-03-19T14:30:30.937Z,3.40
2023-03-19T14:33:02.617Z,4.77
2023-03-19T14:35:36.740Z,4.87
2023-03-19T14:38:13.612Z,5.53
2023-03-19T14:40:46.687Z,4.07
2023-03-19T14:43:25.387Z,3.80
2023-03-19T14:46:00.639Z,4.03
2023-03-19T14:48:57.884Z,4.27
2023-03-19T14:51:51.618Z,3.40
2023-03-19T14:54:35.086Z,4.37
2023-03-19T14:57:08.942Z,3.70
2023-03-19T14:59:41.070Z,3.93
2023-03-19T15:02:26.470Z,3.93
2023-03-19T15:04:56.180Z,3.63
2023-03-19T15:07:31.617Z,3.87
2023-03-19T15:10:06.585Z,3.60
2023-03-19T15:13:04.099Z,4.10
2023-03-19T15:15:54.336Z,3.53
2023-03-19T15:18:23.515Z,3.77
2023-03-19T15:20:55.460Z,3.93
2023-03-19T15:23:28.220Z,3.60
2023-03-19T15:26:01.236Z,2.87
2023-03-19T15:28:31.210Z,3.23
2023-03-19T15:31:14.173Z,2.77
2023-03-19T15:33:50.188Z,3.10
2023-03-19T15:36:24.231Z,2.53
2023-03-19T15:38:57.157Z,3.17
2023-03-19T15:41:29.881Z,2.27
2023-03-19T15:43:58.512Z,2.90
2023-03-19T15:46:35.625Z,2.80
2023-03-19T15:49:08.302Z,3.13
2023-03-19T15:51:36.908Z,3.10
2023-03-19T15:54:06.771Z,2.80
2023-03-19T15:56:36.739Z,3.50
2023-03-19T15:59:05.909Z,3.17
2023-03-19T16:01:35.319Z,3.67
2023-03-19T16:04:06.949Z,3.00
2023-03-19T16:06:39.551Z,3.20
2023-03-19T16:09:23.805Z,2.70
2023-03-19T16:11:54.637Z,3.30
2023-03-19T16:14:28.111Z,3.37
2023-03-19T16:17:03.459Z,3.33
2023-03-19T16:19:34.700Z,3.23
2023-03-19T16:22:05.822Z,3.00
2023-03-19T16:24:37.649Z,3.13
2023-03-19T16:27:12.736Z,3.03
2023-03-19T16:29:43.500Z,4.27
2023-03-19T16:32:21.892Z,3.80
2023-03-19T16:34:52.825Z,3.60
2023-03-19T16:37:35.030Z,3.67
2023-03-19T16:40:17.084Z,3.07
2023-03-19T16:42:48.198Z,2.87
2023-03-19T16:45:22.522Z,3.57
2023-03-19T16:47:52.578Z,3.40
2023-03-19T16:50:22.672Z,3.57
2023-03-19T16:52:51.306Z,3.53
2023-03-19T16:55:24.742Z,3.00
2023-03-19T16:57:58.942Z,3.47
2023-03-19T17:00:31.749Z,3.20
2023-03-19T17:03:01.662Z,3.10
2023-03-19T17:05:31.047Z,3.30
2023-03-19T17:07:59.692Z,3.43
2023-03-19T17:10:30.162Z,3.43
2023-03-19T17:13:01.374Z,3.50
2023-03-19T17:15:33.042Z,3.67
2023-03-19T17:18:03.948Z,3.40
2023-03-19T17:20:34.317Z,3.80
2023-03-19T17:23:03.244Z,3.30
2023-03-19T17:25:32.091Z,4.73
2023-03-19T17:28:02.349Z,4.33
2023-03-19T17:30:30.963Z,3.70
2023-03-19T17:32:59.891Z,4.70
2023-03-19T17:35:28.454Z,4.57
2023-03-19T17:37:57.235Z,4.37
2023-03-19T17:40:28.304Z,3.87
2023-03-19T17:42:57.390Z,4.17
2023-03-19T17:45:29.975Z,4.07
2023-03-19T17:47:59.636Z,4.93
2023-03-19T17:50:31.379Z,4.70
2023-03-19T17:53:00.232Z,5.20
2023-03-19T17:55:30.611Z,5.27
2023-03-19T17:57:59.234Z,5.27
2023-03-19T18:00:28.951Z,6.17
2023-03-19T18:02:57.970Z,6.37
2023-03-19T18:05:27.554Z,6.17
2023-03-19T18:07:58.405Z,9.07
2023-03-19T18:10:30.360Z,13.20
2023-03-19T18:13:00.570Z,16.73
2023-03-19T18:15:31.626Z,17.90
2023-03-19T18:18:01.824Z,14.63
2023-03-19T18:20:34.725Z,8.97
2023-03-19T18:23:04.193Z,8.60
2023-03-19T18:25:35.532Z,7.90
2023-03-19T18:28:05.769Z,9.07
2023-03-19T18:30:38.059Z,9.73
2023-03-19T18:33:09.278Z,10.40
2023-03-19T18:35:40.913Z,10.90
2023-03-19T18:38:16.025Z,10.83
2023-03-19T18:40:44.814Z,11.93
2023-03-19T18:43:15.957Z,13.23
2023-03-19T18:45:49.240Z,13.23
2023-03-19T18:48:26.015Z,11.67
2023-03-19T18:50:55.474Z,11.90
2023-03-19T18:53:24.739Z,12.37
2023-03-19T18:55:53.552Z,12.40
2023-03-19T18:58:23.602Z,13.13
2023-03-19T19:00:54.514Z,13.40
2023-03-19T19:03:28.583Z,13.77
2023-03-19T19:05:57.334Z,14.47
2023-03-19T19:08:26.868Z,16.03
2023-03-19T19:10:59.887Z,17.57
2023-03-19T19:13:31.253Z,20.33
2023-03-19T19:16:01.695Z,20.60
2023-03-19T19:18:33.038Z,24.70
2023-03-19T19:21:02.233Z,19.73
2023-03-19T19:23:31.570Z,18.17
2023-03-19T19:26:00.083Z,15.53
2023-03-19T19:28:32.880Z,13.67
2023-03-19T19:31:02.888Z,13.53
2023-03-19T19:33:34.878Z,13.50
2023-03-19T19:36:03.637Z,16.50
2023-03-19T19:38:32.309Z,24.67
2023-03-19T19:41:01.014Z,27.73
2023-03-19T19:43:31.609Z,35.47
2023-03-19T19:46:00.508Z,27.93
2023-03-19T19:48:31.584Z,29.40
2023-03-19T19:51:00.697Z,24.03
2023-03-19T19:53:29.607Z,21.03
2023-03-19T19:55:58.554Z,18.07
2023-03-19T19:58:30.984Z,16.50
2023-03-19T20:01:03.763Z,16.50
2023-03-19T20:03:35.612Z,17.93
2023-03-19T20:06:04.416Z,22.63
2023-03-19T20:08:32.916Z,21.63
2023-03-19T20:11:02.217Z,20.13
2023-03-19T20:13:33.682Z,23.87
2023-03-19T20:16:02.972Z,31.40
2023-03-19T20:18:35.840Z,27.53
2023-03-19T20:21:05.149Z,27.30
2023-03-19T20:23:33.735Z,24.80
2023-03-19T20:26:03.516Z,23.50
2023-03-19T20:28:35.569Z,20.97
2023-03-19T20:31:05.578Z,20.10
2023-03-19T20:33:37.374Z,16.83
2023-03-19T20:36:06.620Z,17.17
2023-03-19T20:38:36.728Z,17.40
2023-03-19T20:41:05.146Z,17.60
2023-03-19T20:43:35.437Z,20.70
2023-03-19T20:46:05.865Z,17.63
2023-03-19T20:48:35.958Z,16.03
2023-03-19T20:51:04.747Z,17.63
2023-03-19T20:53:33.393Z,15.37
2023-03-19T20:56:03.416Z,18.07
2023-03-19T20:58:33.846Z,18.50
2023-03-19T21:01:02.879Z,16.33
2023-03-19T21:03:32.809Z,16.57
2023-03-19T21:06:05.313Z,16.57
2023-03-19T21:08:37.313Z,14.97
2023-03-19T21:11:06.060Z,14.20
2023-03-19T21:13:34.504Z,12.27
2023-03-19T21:16:03.694Z,12.57
2023-03-19T21:18:32.172Z,11.67
2023-03-19T21:21:02.084Z,11.83
2023-03-19T21:23:34.825Z,10.77
2023-03-19T21:26:09.585Z,10.30
2023-03-19T21:28:39.624Z,9.97
2023-03-19T21:31:11.738Z,10.63
2023-03-19T21:33:41.197Z,10.20
2023-03-19T21:36:11.674Z,9.87
2023-03-19T21:38:40.143Z,9.30
2023-03-19T21:41:16.578Z,9.80
2023-03-19T21:43:47.649Z,9.90
2023-03-19T21:46:24.408Z,10.43
2023-03-19T21:48:53.703Z,10.73
2023-03-19T21:51:25.239Z,10.67
2023-03-19T21:53:53.873Z,10.83
2023-03-19T21:56:24.256Z,11.23
2023-03-19T21:58:53.716Z,11.73
2023-03-19T22:01:24.396Z,11.30
2023-03-19T22:03:53.360Z,11.17
2023-03-19T22:06:24.252Z,11.73
2023-03-19T22:08:54.672Z,12.13
2023-03-19T22:11:27.198Z,11.30
2023-03-19T22:13:56.763Z,10.77
2023-03-19T22:16:26.264Z,10.67
2023-03-19T22:18:54.811Z,10.50
2023-03-19T22:21:24.781Z,10.00
2023-03-19T22:23:53.534Z,10.40
2023-03-19T22:26:33.399Z,10.33
2023-03-19T22:29:05.090Z,10.40
2023-03-19T22:31:34.397Z,10.27
2023-03-19T22:34:03.062Z,9.00
2023-03-19T22:36:32.694Z,9.40
2023-03-19T22:39:01.114Z,10.17
2023-03-19T22:41:34.177Z,11.03
2023-03-19T22:44:05.291Z,9.80
2023-03-19T22:46:34.327Z,9.90
2023-03-19T22:49:03.545Z,10.47
2023-03-19T22:51:33.271Z,10.90
2023-03-19T22:54:01.712Z,9.63
2023-03-19T22:56:30.118Z,10.40
2023-03-19T22:58:58.771Z,10.93
2023-03-19T23:01:40.636Z,10.07
2023-03-19T23:04:19.144Z,10.80
2023-03-19T23:06:49.539Z,11.83
2023-03-19T23:09:19.555Z,10.43
2023-03-19T23:11:49.407Z,11.27
2023-03-19T23:14:29.101Z,11.77
2023-03-19T23:16:59.911Z,11.70
2023-03-19T23:19:30.331Z,11.23
2023-03-19T23:22:00.798Z,9.97
2023-03-19T23:24:30.542Z,10.77
2023-03-19T23:27:00.976Z,11.10
2023-03-19T23:29:32.458Z,10.77
2023-03-19T23:32:01.426Z,10.87
2023-03-19T23:34:30.086Z,10.83
2023-03-19T23:37:00.064Z,10.73
2023-03-19T23:39:28.899Z,10.60
2023-03-19T23:42:00.318Z,11.50
2023-03-19T23:44:29.523Z,11.37
2023-03-19T23:47:02.971Z,11.23
2023-03-19T23:49:33.603Z,10.67
2023-03-19T23:52:05.264Z,11.77
2023-03-19T23:54:36.691Z,11.10
2023-03-19T23:57:07.305Z,11.53
2023-03-19T23:59:38.215Z,11.40
